Time;durP1;ratioP1;P1;durP2;ratioP2;P2;SDS_P1;SDS_P2;PMS_P1;PMS_P2;Temp;Humidity;BMP_temperature;BMP_pressure;BME280_temperature;BME280_humidity;BME280_pressure;Samples;Min_cycle;Max_cycle;Signal;HPM_P1;HPM_P2
2023/08/01 00:02:23;;;;;;;;;;;;;;;;;;5023817;28;20023;-68
2023/08/01 00:04:54;;;;;;;;;;;;;;;;;;5008786;28;19921;-68
2023/08/01 00:07:22;;;;;;;;;;;;;;;;;;5007851;28;20092;-68
2023/08/01 00:09:47;;;;;;;;;;;;;;;;;;5006146;28;19940;-66
2023/08/01 00:12:13;;;;;;;;;;;;;;;;;;5008546;28;19917;-74
2023/08/01 00:14:38;;;;;;;;;;;;;;;;;;5020911;28;20029;-67
2023/08/01 00:17:03;;;;;;;;;;;;;;;;;;5009638;28;20004;-66
2023/08/01 00:19:31;;;;;;;;;;;;;;;;;;4986785;28;20374;-67
2023/08/01 00:22:00;;;;;;;;;;;;;;;;;;5023422;28;19971;-67
2023/08/01 00:24:25;;;;;;;;;;;;;;;;;;4985213;28;20292;-67
2023/08/01 00:26:55;;;;;;;;;;;;;;;;;;5007869;28;20280;-67
2023/08/01 00:29:20;;;;;;;;;;;;;;;;;;4986570;28;20450;-68
2023/08/01 00:31:48;;;;;;;;;;;;;;;;;;5023489;28;19935;-66
2023/08/01 00:34:14;;;;;;;;;;;;;;;;;;5035118;28;19916;-69
2023/08/01 00:36:41;;;;;;;;;;;;;;;;;;5051916;28;19921;-67
2023/08/01 00:39:07;;;;;;;;;;;;;;;;;;5035113;28;19964;-65
2023/08/01 00:41:32;;;;;;;;;;;;;;;;;;5006470;28;20031;-69
2023/08/01 00:44:01;;;;;;;;;;;;;;;;;;5035589;28;19923;-68
2023/08/01 00:46:29;;;;;;;;;;;;;;;;;;5035387;28;20420;-66
2023/08/01 00:48:57;;;;;;;;;;;;;;;;;;5034948;28;19916;-69
2023/08/01 00:51:25;;;;;;;;;;;;;;;;;;5036364;28;19964;-68
2023/08/01 00:53:50;;;;;;;;;;;;;;;;;;5034022;28;19927;-66
2023/08/01 00:56:19;;;;;;;;;;;;;;;;;;5051777;28;19948;-67
2023/08/01 00:58:46;;;;;;;;;;;;;;;;;;5034784;28;20007;-66
2023/08/01 01:01:12;;;;;;;;;;;;;;;;;;5035004;28;19921;-68
2023/08/01 01:03:37;;;;;;;;;;;;;;;;;;5034268;28;20680;-66
2023/08/01 01:06:02;;;;;;;;;;;;;;;;;;5034636;28;20340;-66
2023/08/01 01:08:30;;;;;;;;;;;;;;;;;;5032582;28;19920;-67
2023/08/01 01:10:58;;;;;;;;;;;;;;;;;;5048892;28;19945;-67
2023/08/01 01:13:27;;;;;;;;;;;;;;;;;;5017607;28;20126;-67
2023/08/01 01:15:57;;;;;;;;;;;;;;;;;;5034672;28;20391;-67
2023/08/01 01:18:22;;;;;;;;;;;;;;;;;;5035627;28;20386;-67
2023/08/01 01:20:47;;;;;;;;;;;;;;;;;;5032532;28;19927;-67
2023/08/01 01:23:13;;;;;;;;;;;;;;;;;;5033804;28;19917;-67
2023/08/01 01:25:38;;;;;;;;;;;;;;;;;;5034368;28;19951;-67
2023/08/01 01:28:04;;;;;;;;;;;;;;;;;;5019476;28;19920;-66
2023/08/01 01:30:33;;;;;;;;;;;;;;;;;;5037283;28;19924;-68
2023/08/01 01:32:58;;;;;;;;;;;;;;;;;;5020098;28;19928;-69
2023/08/01 01:35:24;;;;;;;;;;;;;;;;;;5037167;28;19931;-66
2023/08/01 01:37:52;;;;;;;;;;;;;;;;;;5055370;28;20013;-68
2023/08/01 01:40:17;;;;;;;;;;;;;;;;;;5036385;28;20553;-68
2023/08/01 01:42:42;;;;;;;;;;;;;;;;;;5036348;28;19924;-68
2023/08/01 01:45:08;;;;;;;;;;;;;;;;;;5036022;28;19916;-72
2023/08/01 01:47:38;;;;;;;;;;;;;;;;;;5036576;28;20372;-68
2023/08/01 01:50:07;;;;;;;;;;;;;;;;;;5021230;28;19920;-67
2023/08/01 01:52:32;;;;;;;;;;;;;;;;;;5033674;28;19931;-68
2023/08/01 01:54:58;;;;;;;;;;;;;;;;;;5046391;28;19921;-68
2023/08/01 01:57:23;;;;;;;;;;;;;;;;;;5036784;28;20492;-68
2023/08/01 01:59:48;;;;;;;;;;;;;;;;;;5055655;28;20344;-69
2023/08/01 02:02:14;;;;;;;;;;;;;;;;;;5055145;28;20450;-68
2023/08/01 02:04:42;;;;;;;;;;;;;;;;;;5023778;28;20952;-68
2023/08/01 02:07:10;;;;;;;;;;;;;;;;;;5037224;28;20603;-68
2023/08/01 02:09:40;;;;;;;;;;;;;;;;;;5036483;28;21468;-67
2023/08/01 02:12:08;;;;;;;;;;;;;;;;;;5053374;28;19919;-67
2023/08/01 02:14:36;;;;;;;;;;;;;;;;;;5036660;28;19920;-68
2023/08/01 02:17:04;;;;;;;;;;;;;;;;;;5056048;28;19925;-68
2023/08/01 02:19:32;;;;;;;;;;;;;;;;;;5035552;28;19968;-68
2023/08/01 02:21:58;;;;;;;;;;;;;;;;;;5036491;28;20007;-68
2023/08/01 02:24:23;;;;;;;;;;;;;;;;;;5019743;28;20014;-68
2023/08/01 02:26:49;;;;;;;;;;;;;;;;;;5018538;28;19927;-68
2023/08/01 02:29:17;;;;;;;;;;;;;;;;;;5037866;28;19959;-68
2023/08/01 02:31:42;;;;;;;;;;;;;;;;;;5037594;28;20062;-68
2023/08/01 02:34:07;;;;;;;;;;;;;;;;;;5036944;28;20021;-68
2023/08/01 02:36:36;;;;;;;;;;;;;;;;;;5034360;28;19931;-67
2023/08/01 02:39:04;;;;;;;;;;;;;;;;;;5036884;28;20295;-68
2023/08/01 02:41:34;;;;;;;;;;;;;;;;;;5052138;28;20221;-68
2023/08/01 02:43:59;;;;;;;;;;;;;;;;;;5055413;28;19916;-67
2023/08/01 02:46:31;;;;;;;;;;;;;;;;;;5018847;28;19969;-68
2023/08/01 02:48:56;;;;;;;;;;;;;;;;;;5036905;28;19939;-68
2023/08/01 02:51:24;;;;;;;;;;;;;;;;;;5034897;28;20002;-68
2023/08/01 02:53:49;;;;;;;;;;;;;;;;;;5006631;28;20166;-67
2023/08/01 02:56:15;;;;;;;;;;;;;;;;;;5020287;28;19927;-69
2023/08/01 02:58:43;;;;;;;;;;;;;;;;;;5052136;28;20471;-67
2023/08/01 03:01:10;;;;;;;;;;;;;;;;;;5054198;28;20307;-68
2023/08/01 03:03:37;;;;;;;;;;;;;;;;;;5055512;28;20091;-68
2023/08/01 03:06:05;;;;;;;;;;;;;;;;;;5036109;28;20007;-68
2023/08/01 03:08:33;;;;;;;;;;;;;;;;;;5034873;28;20561;-68
2023/08/01 03:10:59;;;;;;;;;;;;;;;;;;5034961;28;19920;-69
2023/08/01 03:13:24;;;;;;;;;;;;;;;;;;5036230;28;19962;-69
2023/08/01 03:15:50;;;;;;;;;;;;;;;;;;5019971;28;19921;-75
2023/08/01 03:18:15;;;;;;;;;;;;;;;;;;5036410;28;19921;-74
2023/08/01 03:20:41;;;;;;;;;;;;;;;;;;5036961;28;19925;-73
2023/08/01 03:23:06;;;;;;;;;;;;;;;;;;5035056;28;19925;-73
2023/08/01 03:25:34;;;;;;;;;;;;;;;;;;5054137;28;19919;-71
2023/08/01 03:27:59;;;;;;;;;;;;;;;;;;5035328;28;20050;-71
2023/08/01 03:30:25;;;;;;;;;;;;;;;;;;5038097;28;20130;-71
2023/08/01 03:32:55;;;;;;;;;;;;;;;;;;5052491;28;20337;-73
2023/08/01 03:35:23;;;;;;;;;;;;;;;;;;5041254;28;19919;-71
2023/08/01 03:37:51;;;;;;;;;;;;;;;;;;5038202;28;20257;-71
2023/08/01 03:40:19;;;;;;;;;;;;;;;;;;5057286;28;19962;-72
2023/08/01 03:42:47;;;;;;;;;;;;;;;;;;5023254;28;19924;-71
2023/08/01 03:45:15;;;;;;;;;;;;;;;;;;5057382;28;20716;-72
2023/08/01 03:47:40;;;;;;;;;;;;;;;;;;5040885;28;19979;-73
2023/08/01 03:50:06;;;;;;;;;;;;;;;;;;5058334;28;20015;-72
2023/08/01 03:52:31;;;;;;;;;;;;;;;;;;5023059;28;19931;-72
2023/08/01 03:54:56;;;;;;;;;;;;;;;;;;5056359;28;19967;-72
2023/08/01 03:57:24;;;;;;;;;;;;;;;;;;5056949;28;20006;-74
2023/08/01 03:59:52;;;;;;;;;;;;;;;;;;5042052;28;19932;-73
2023/08/01 04:02:18;;;;;;;;;;;;;;;;;;5058106;28;20756;-73
2023/08/01 04:04:44;;;;;;;;;;;;;;;;;;5040238;28;20355;-73
2023/08/01 04:07:09;;;;;;;;;;;;;;;;;;5057649;28;20620;-71
2023/08/01 04:09:35;;;;;;;;;;;;;;;;;;5055965;28;20059;-72
2023/08/01 04:12:00;;;;;;;;;;;;;;;;;;5042554;28;20474;-72
2023/08/01 04:14:26;;;;;;;;;;;;;;;;;;5023216;28;19920;-72
2023/08/01 04:16:51;;;;;;;;;;;;;;;;;;5059641;28;19932;-72
2023/08/01 04:19:16;;;;;;;;;;;;;;;;;;5023164;28;19924;-72
2023/08/01 04:21:42;;;;;;;;;;;;;;;;;;5040575;28;20014;-72
2023/08/01 04:24:07;;;;;;;;;;;;;;;;;;5057588;28;20465;-72
2023/08/01 04:26:32;;;;;;;;;;;;;;;;;;5036122;28;19920;-71
2023/08/01 04:28:58;;;;;;;;;;;;;;;;;;5057345;28;20402;-72
2023/08/01 04:31:23;;;;;;;;;;;;;;;;;;5040055;28;20314;-72
2023/08/01 04:33:49;;;;;;;;;;;;;;;;;;5022788;28;19917;-71
2023/08/01 04:36:14;;;;;;;;;;;;;;;;;;5058868;28;19920;-70
2023/08/01 04:38:39;;;;;;;;;;;;;;;;;;5056548;28;19920;-72
2023/08/01 04:41:05;;;;;;;;;;;;;;;;;;5040285;28;19920;-71
2023/08/01 04:43:30;;;;;;;;;;;;;;;;;;5055676;28;19916;-71
2023/08/01 04:45:55;;;;;;;;;;;;;;;;;;5058479;28;20063;-71
2023/08/01 04:48:21;;;;;;;;;;;;;;;;;;5038997;28;20368;-71
2023/08/01 04:50:46;;;;;;;;;;;;;;;;;;5040500;28;19923;-73
2023/08/01 04:53:12;;;;;;;;;;;;;;;;;;5037905;28;19921;-72
2023/08/01 04:55:37;;;;;;;;;;;;;;;;;;5037918;28;20338;-74
2023/08/01 04:58:02;;;;;;;;;;;;;;;;;;5039972;28;20362;-73
2023/08/01 05:00:28;;;;;;;;;;;;;;;;;;5038358;28;19920;-71
2023/08/01 05:02:53;;;;;;;;;;;;;;;;;;5057206;28;20014;-73
2023/08/01 05:05:19;;;;;;;;;;;;;;;;;;5038334;28;19921;-72
2023/08/01 05:07:44;;;;;;;;;;;;;;;;;;5024389;28;20300;-72
2023/08/01 05:10:09;;;;;;;;;;;;;;;;;;5057888;28;20646;-71
2023/08/01 05:12:35;;;;;;;;;;;;;;;;;;5037895;28;19951;-71
2023/08/01 05:15:03;;;;;;;;;;;;;;;;;;5039548;28;19916;-74
2023/08/01 05:17:28;;;;;;;;;;;;;;;;;;5038648;28;19921;-70
2023/08/01 05:19:55;;;;;;;;;;;;;;;;;;5038997;28;19998;-72
2023/08/01 05:22:20;;;;;;;;;;;;;;;;;;5056743;28;19920;-72
2023/08/01 05:24:46;;;;;;;;;;;;;;;;;;5056934;28;19920;-71
2023/08/01 05:27:14;;;;;;;;;;;;;;;;;;5039813;28;20559;-69
2023/08/01 05:29:39;;;;;;;;;;;;;;;;;;5058893;28;19916;-70
2023/08/01 05:32:04;;;;;;;;;;;;;;;;;;5041285;28;20626;-71
2023/08/01 05:34:29;;;;;;;;;;;;;;;;;;5022845;28;19915;-69
2023/08/01 05:36:55;;;;;;;;;;;;;;;;;;5039115;28;19924;-73
2023/08/01 05:39:20;;;;;;;;;;;;;;;;;;5021789;28;19931;-72
2023/08/01 05:41:45;;;;;;;;;;;;;;;;;;5021944;28;19972;-71
2023/08/01 05:44:14;;;;;;;;;;;;;;;;;;5039914;28;20630;-72
2023/08/01 05:46:39;;;;;;;;;;;;;;;;;;5020529;28;19916;-72
2023/08/01 05:49:04;;;;;;;;;;;;;;;;;;5039485;28;20367;-72
2023/08/01 05:51:30;;;;;;;;;;;;;;;;;;5021214;28;19920;-73
2023/08/01 05:53:59;;;;;;;;;;;;;;;;;;5022204;28;19985;-71
2023/08/01 05:56:24;;;;;;;;;;;;;;;;;;5055824;28;20330;-72
2023/08/01 05:58:50;;;;;;;;;;;;;;;;;;5056863;28;19919;-71
2023/08/01 06:01:16;;;;;;;;;;;;;;;;;;5056624;28;19927;-73
2023/08/01 06:03:42;;;;;;;;;;;;;;;;;;5035667;28;19920;-72
2023/08/01 06:06:08;;;;;;;;;;;;;;;;;;5055124;28;19923;-73
2023/08/01 06:08:33;;;;;;;;;;;;;;;;;;5040206;28;19986;-71
2023/08/01 06:10:59;;;;;;;;;;;;;;;;;;5056076;28;19978;-72
2023/08/01 06:13:24;;;;;;;;;;;;;;;;;;5038460;28;20368;-71
2023/08/01 06:15:50;;;;;;;;;;;;;;;;;;5053121;28;19917;-71
2023/08/01 06:18:15;;;;;;;;;;;;;;;;;;5039434;28;21907;-72
2023/08/01 06:20:43;;;;;;;;;;;;;;;;;;5024171;28;19966;-71
2023/08/01 06:23:08;;;;;;;;;;;;;;;;;;5037805;28;20029;-72
2023/08/01 06:25:38;;;;;;;;;;;;;;;;;;5056782;28;19923;-71
2023/08/01 06:28:04;;;;;;;;;;;;;;;;;;5021893;28;20311;-66
2023/08/01 06:30:29;;;;;;;;;;;;;;;;;;5038070;28;19916;-71
2023/08/01 06:32:57;;;;;;;;;;;;;;;;;;5036502;28;19920;-70
2023/08/01 06:35:25;;;;;;;;;;;;;;;;;;5038401;28;19921;-72
2023/08/01 06:37:54;;;;;;;;;;;;;;;;;;5018521;28;20499;-72
2023/08/01 06:40:25;;;;;;;;;;;;;;;;;;5036661;28;20507;-73
2023/08/01 06:42:50;;;;;;;;;;;;;;;;;;5020135;28;20015;-70
2023/08/01 06:45:20;;;;;;;;;;;;;;;;;;5035910;28;19951;-72
2023/08/01 06:47:46;;;;;;;;;;;;;;;;;;5051774;28;19923;-71
2023/08/01 06:50:12;;;;;;;;;;;;;;;;;;5054933;28;19920;-71
2023/08/01 06:52:39;;;;;;;;;;;;;;;;;;5036937;28;19970;-73
2023/08/01 06:55:05;;;;;;;;;;;;;;;;;;5020863;28;21442;-71
2023/08/01 06:57:33;;;;;;;;;;;;;;;;;;5019972;28;20387;-71
2023/08/01 06:59:58;;;;;;;;;;;;;;;;;;5036942;28;19924;-72
2023/08/01 07:02:25;;;;;;;;;;;;;;;;;;5038793;28;19927;-72
2023/08/01 07:04:50;;;;;;;;;;;;;;;;;;5052781;28;19921;-72
2023/08/01 07:07:16;;;;;;;;;;;;;;;;;;5057444;28;19969;-72
2023/08/01 07:09:41;;;;;;;;;;;;;;;;;;5039854;28;19974;-72
2023/08/01 07:12:06;;;;;;;;;;;;;;;;;;5023899;28;19920;-72
2023/08/01 07:14:32;;;;;;;;;;;;;;;;;;5023925;28;19923;-70
2023/08/01 07:16:57;;;;;;;;;;;;;;;;;;5059636;28;19927;-70
2023/08/01 07:19:22;;;;;;;;;;;;;;;;;;5040871;28;19920;-71
2023/08/01 07:21:50;;;;;;;;;;;;;;;;;;5041134;28;20321;-71
2023/08/01 07:24:16;;;;;;;;;;;;;;;;;;5041425;28;19921;-71
2023/08/01 07:26:41;;;;;;;;;;;;;;;;;;5023002;28;19917;-70
2023/08/01 07:29:10;;;;;;;;;;;;;;;;;;5059227;28;20437;-72
2023/08/01 07:31:38;;;;;;;;;;;;;;;;;;5039288;28;19921;-74
2023/08/01 07:34:04;;;;;;;;;;;;;;;;;;5060132;28;20417;-72
2023/08/01 07:36:32;;;;;;;;;;;;;;;;;;5024355;28;19916;-72
2023/08/01 07:39:00;;;;;;;;;;;;;;;;;;5040939;28;19920;-72
2023/08/01 07:41:25;;;;;;;;;;;;;;;;;;5025265;28;20480;-72
2023/08/01 07:43:53;;;;;;;;;;;;;;;;;;5024488;28;19920;-72
2023/08/01 07:46:18;;;;;;;;;;;;;;;;;;5040293;28;20791;-73
2023/08/01 07:48:44;;;;;;;;;;;;;;;;;;5058790;28;20011;-72
2023/08/01 07:51:11;;;;;;;;;;;;;;;;;;5021711;28;20007;-70
2023/08/01 07:53:36;;;;;;;;;;;;;;;;;;5040834;28;20045;-70
2023/08/01 07:56:02;;;;;;;;;;;;;;;;;;5034232;28;20379;-71
2023/08/01 07:58:27;;;;;;;;;;;;;;;;;;5022359;28;20401;-72
2023/08/01 08:00:52;;;;;;;;;;;;;;;;;;5057775;28;20677;-72
2023/08/01 08:03:18;;;;;;;;;;;;;;;;;;5056886;28;19921;-72
2023/08/01 08:05:46;;;;;;;;;;;;;;;;;;5043156;28;19922;-69
2023/08/01 08:08:14;;;;;;;;;;;;;;;;;;5039773;28;19924;-73
2023/08/01 08:10:42;;;;;;;;;;;;;;;;;;5038414;28;19946;-70
2023/08/01 08:13:07;;;;;;;;;;;;;;;;;;5055337;28;19925;-68
2023/08/01 08:15:35;;;;;;;;;;;;;;;;;;5057620;28;20462;-73
2023/08/01 08:18:04;;;;;;;;;;;;;;;;;;5058068;28;19927;-67
2023/08/01 08:20:29;;;;;;;;;;;;;;;;;;5039284;28;20294;-69
2023/08/01 08:22:57;;;;;;;;;;;;;;;;;;5040980;28;19916;-69
2023/08/01 08:25:22;;;;;;;;;;;;;;;;;;5036824;28;20069;-69
2023/08/01 08:27:48;;;;;;;;;;;;;;;;;;5041188;28;21635;-67
2023/08/01 08:30:13;;;;;;;;;;;;;;;;;;5022159;28;19917;-69
2023/08/01 08:32:41;;;;;;;;;;;;;;;;;;5039532;28;19978;-69
2023/08/01 08:35:07;;;;;;;;;;;;;;;;;;5038119;28;19921;-69
2023/08/01 08:37:37;;;;;;;;;;;;;;;;;;5036722;28;20312;-72
2023/08/01 08:40:04;;;;;;;;;;;;;;;;;;5038851;28;19916;-72
2023/08/01 08:42:35;;;;;;;;;;;;;;;;;;5054705;28;20274;-72
2023/08/01 08:45:03;;;;;;;;;;;;;;;;;;5039568;28;19988;-72
2023/08/01 08:47:31;;;;;;;;;;;;;;;;;;5022988;28;19921;-74
2023/08/01 08:49:59;;;;;;;;;;;;;;;;;;5040477;28;20009;-71
2023/08/01 08:52:27;;;;;;;;;;;;;;;;;;5039279;28;19955;-73
2023/08/01 08:54:53;;;;;;;;;;;;;;;;;;5039342;28;20302;-70
2023/08/01 08:57:18;;;;;;;;;;;;;;;;;;5021881;28;20316;-70
2023/08/01 08:59:44;;;;;;;;;;;;;;;;;;5037466;28;19945;-69
2023/08/01 09:02:12;;;;;;;;;;;;;;;;;;5039705;28;19970;-71
2023/08/01 09:04:37;;;;;;;;;;;;;;;;;;5037290;28;20022;-68
2023/08/01 09:07:03;;;;;;;;;;;;;;;;;;5034784;28;19924;-71
2023/08/01 09:09:28;;;;;;;;;;;;;;;;;;5038664;28;19916;-74
2023/08/01 09:11:56;;;;;;;;;;;;;;;;;;5057547;28;19981;-70
2023/08/01 09:14:21;;;;;;;;;;;;;;;;;;5022368;28;19920;-72
2023/08/01 09:16:49;;;;;;;;;;;;;;;;;;5057793;28;21421;-71
2023/08/01 09:19:14;;;;;;;;;;;;;;;;;;5053996;28;19932;-71
2023/08/01 09:21:41;;;;;;;;;;;;;;;;;;5038790;28;20766;-70
2023/08/01 09:24:07;;;;;;;;;;;;;;;;;;5037064;28;19922;-68
2023/08/01 09:26:34;;;;;;;;;;;;;;;;;;5038429;28;19916;-69
2023/08/01 09:29:00;;;;;;;;;;;;;;;;;;5038577;28;20026;-71
2023/08/01 09:31:25;;;;;;;;;;;;;;;;;;5055513;28;19955;-69
2023/08/01 09:33:51;;;;;;;;;;;;;;;;;;5057745;28;19928;-69
2023/08/01 09:36:17;;;;;;;;;;;;;;;;;;5020163;28;19977;-72
2023/08/01 09:38:44;;;;;;;;;;;;;;;;;;5019516;28;20607;-69
2023/08/01 09:41:10;;;;;;;;;;;;;;;;;;5058213;28;20120;-70
2023/08/01 09:43:35;;;;;;;;;;;;;;;;;;5019517;28;20024;-68
2023/08/01 09:46:01;;;;;;;;;;;;;;;;;;5024518;28;19920;-68
2023/08/01 09:48:26;;;;;;;;;;;;;;;;;;5037666;28;19923;-68
2023/08/01 09:50:53;;;;;;;;;;;;;;;;;;5039093;28;19977;-69
2023/08/01 09:53:18;;;;;;;;;;;;;;;;;;5038320;28;19917;-69
2023/08/01 09:55:46;;;;;;;;;;;;;;;;;;5019543;28;20159;-72
2023/08/01 09:58:12;;;;;;;;;;;;;;;;;;5037272;28;20135;-69
2023/08/01 10:00:40;;;;;;;;;;;;;;;;;;5039196;28;20287;-71
2023/08/01 10:03:05;;;;;;;;;;;;;;;;;;5036115;28;20382;-74
2023/08/01 10:05:31;;;;;;;;;;;;;;;;;;5040501;28;19920;-69
2023/08/01 10:07:57;;;;;;;;;;;;;;;;;;5039566;28;19916;-68
2023/08/01 10:10:23;;;;;;;;;;;;;;;;;;5056467;28;19927;-72
2023/08/01 10:12:48;;;;;;;;;;;;;;;;;;5020449;28;19920;-73
2023/08/01 10:15:17;;;;;;;;;;;;;;;;;;5037916;28;19920;-71
2023/08/01 10:17:42;;;;;;;;;;;;;;;;;;5021479;28;19939;-75
2023/08/01 10:20:10;;;;;;;;;;;;;;;;;;5039424;28;19920;-72
2023/08/01 10:22:36;;;;;;;;;;;;;;;;;;5056717;28;19928;-71
2023/08/01 10:25:01;;;;;;;;;;;;;;;;;;5021880;28;19924;-73
2023/08/01 10:27:27;;;;;;;;;;;;;;;;;;5019981;28;19927;-72
2023/08/01 10:29:52;;;;;;;;;;;;;;;;;;5037886;28;19977;-72
2023/08/01 10:32:18;;;;;;;;;;;;;;;;;;5056903;28;20279;-73
2023/08/01 10:34:43;;;;;;;;;;;;;;;;;;5037553;28;20144;-72
2023/08/01 10:37:09;;;;;;;;;;;;;;;;;;5033553;28;20327;-75
2023/08/01 10:39:34;;;;;;;;;;;;;;;;;;5037856;28;19947;-74
2023/08/01 10:42:00;;;;;;;;;;;;;;;;;;5055124;28;20006;-76
2023/08/01 10:44:30;;;;;;;;;;;;;;;;;;5026252;28;20286;-71
2023/08/01 10:46:55;;;;;;;;;;;;;;;;;;5061256;28;19952;-76
2023/08/01 10:49:22;;;;;;;;;;;;;;;;;;5042801;28;20068;-73
2023/08/01 10:51:50;;;;;;;;;;;;;;;;;;5042178;28;20276;-75
2023/08/01 10:54:18;;;;;;;;;;;;;;;;;;5058493;28;19931;-70
2023/08/01 10:56:48;;;;;;;;;;;;;;;;;;5044095;28;19920;-74
2023/08/01 10:59:13;;;;;;;;;;;;;;;;;;5061238;28;19934;-75
2023/08/01 11:01:41;;;;;;;;;;;;;;;;;;5059508;28;19921;-70
2023/08/01 11:04:07;;;;;;;;;;;;;;;;;;5057274;28;19916;-76
2023/08/01 11:06:32;;;;;;;;;;;;;;;;;;5042907;28;20377;-81
2023/08/01 11:09:00;;;;;;;;;;;;;;;;;;5059215;28;19924;-71
2023/08/01 11:11:25;;;;;;;;;;;;;;;;;;5040891;28;19920;-74
2023/08/01 11:13:51;;;;;;;;;;;;;;;;;;5060568;28;19916;-74
2023/08/01 11:16:17;;;;;;;;;;;;;;;;;;5058068;28;19931;-76
2023/08/01 11:18:42;;;;;;;;;;;;;;;;;;5041158;28;19920;-71
2023/08/01 11:21:07;;;;;;;;;;;;;;;;;;5041695;28;20686;-77
2023/08/01 11:23:33;;;;;;;;;;;;;;;;;;5024793;28;20379;-74
2023/08/01 11:26:00;;;;;;;;;;;;;;;;;;5041713;28;19944;-71
2023/08/01 11:28:26;;;;;;;;;;;;;;;;;;5041353;28;20386;-71
2023/08/01 11:30:53;;;;;;;;;;;;;;;;;;5023275;28;20170;-79
2023/08/01 11:33:20;;;;;;;;;;;;;;;;;;5035914;28;19928;-73
2023/08/01 11:35:45;;;;;;;;;;;;;;;;;;5037095;28;19928;-77
2023/08/01 11:38:11;;;;;;;;;;;;;;;;;;5038438;28;20295;-75
2023/08/01 11:40:36;;;;;;;;;;;;;;;;;;5038401;28;20304;-73
2023/08/01 11:43:02;;;;;;;;;;;;;;;;;;5040297;28;19991;-80
2023/08/01 11:45:30;;;;;;;;;;;;;;;;;;5036899;28;20026;-74
2023/08/01 11:47:55;;;;;;;;;;;;;;;;;;5020137;28;19932;-81
2023/08/01 11:50:22;;;;;;;;;;;;;;;;;;5037795;28;19943;-72
2023/08/01 11:52:47;;;;;;;;;;;;;;;;;;5039380;28;20283;-72
2023/08/01 11:55:13;;;;;;;;;;;;;;;;;;5036345;28;19920;-71
2023/08/01 11:57:38;;;;;;;;;;;;;;;;;;5038991;28;20335;-71
2023/08/01 12:00:09;;;;;;;;;;;;;;;;;;5037045;28;20304;-70
2023/08/01 12:02:34;;;;;;;;;;;;;;;;;;5019405;28;20445;-68
2023/08/01 12:05:00;;;;;;;;;;;;;;;;;;5038689;28;19921;-74
2023/08/01 12:07:29;;;;;;;;;;;;;;;;;;5037358;28;20786;-73
2023/08/01 12:09:54;;;;;;;;;;;;;;;;;;5019272;28;19916;-74
2023/08/01 12:12:22;;;;;;;;;;;;;;;;;;5039021;28;19921;-77
2023/08/01 12:14:49;;;;;;;;;;;;;;;;;;5036942;28;19917;-73
2023/08/01 12:17:17;;;;;;;;;;;;;;;;;;5036945;28;20039;-69
2023/08/01 12:19:42;;;;;;;;;;;;;;;;;;5053306;28;19920;-78
2023/08/01 12:22:10;;;;;;;;;;;;;;;;;;5020717;28;19928;-70
2023/08/01 12:24:37;;;;;;;;;;;;;;;;;;5033565;28;20011;-73
2023/08/01 12:27:05;;;;;;;;;;;;;;;;;;5036401;28;19927;-74
2023/08/01 12:29:31;;;;;;;;;;;;;;;;;;5053771;28;21405;-74
2023/08/01 12:31:59;;;;;;;;;;;;;;;;;;5038063;28;19921;-73
2023/08/01 12:34:27;;;;;;;;;;;;;;;;;;5038913;28;20020;-70
2023/08/01 12:36:52;;;;;;;;;;;;;;;;;;5023379;28;19972;-74
2023/08/01 12:39:17;;;;;;;;;;;;;;;;;;5022990;28;19931;-71
2023/08/01 12:41:47;;;;;;;;;;;;;;;;;;5020261;28;19920;-73
2023/08/01 12:44:15;;;;;;;;;;;;;;;;;;5040195;28;20026;-75
2023/08/01 12:46:41;;;;;;;;;;;;;;;;;;5056140;28;19946;-76
2023/08/01 12:49:06;;;;;;;;;;;;;;;;;;5040081;28;19970;-74
2023/08/01 12:51:40;;;;;;;;;;;;;;;;;;5040069;28;19916;-73
2023/08/01 12:54:06;;;;;;;;;;;;;;;;;;5036954;28;19923;-72
2023/08/01 12:56:31;;;;;;;;;;;;;;;;;;5037240;28;20346;-76
2023/08/01 12:58:56;;;;;;;;;;;;;;;;;;5022982;28;19925;-71
2023/08/01 13:01:22;;;;;;;;;;;;;;;;;;5018963;28;19920;-75
2023/08/01 13:03:48;;;;;;;;;;;;;;;;;;5039637;28;19971;-71
2023/08/01 13:06:17;;;;;;;;;;;;;;;;;;5056373;28;19920;-72
2023/08/01 13:08:43;;;;;;;;;;;;;;;;;;5034443;28;19920;-73
2023/08/01 13:11:11;;;;;;;;;;;;;;;;;;5038388;28;19921;-69
2023/08/01 13:13:39;;;;;;;;;;;;;;;;;;5038658;28;20462;-78
2023/08/01 13:16:05;;;;;;;;;;;;;;;;;;5037414;28;19915;-72
2023/08/01 13:18:33;;;;;;;;;;;;;;;;;;5056462;28;19921;-72
2023/08/01 13:20:59;;;;;;;;;;;;;;;;;;5021523;28;20351;-71
2023/08/01 13:23:24;;;;;;;;;;;;;;;;;;5037295;28;19916;-71
2023/08/01 13:25:49;;;;;;;;;;;;;;;;;;5038713;28;19935;-70
2023/08/01 13:28:18;;;;;;;;;;;;;;;;;;5039395;28;20155;-73
2023/08/01 13:30:45;;;;;;;;;;;;;;;;;;5039155;28;20407;-74
2023/08/01 13:33:12;;;;;;;;;;;;;;;;;;5037936;28;19928;-69
2023/08/01 13:35:37;;;;;;;;;;;;;;;;;;5022108;28;19916;-71
2023/08/01 13:38:07;;;;;;;;;;;;;;;;;;5046469;28;19924;-73
2023/08/01 13:40:32;;;;;;;;;;;;;;;;;;5036613;28;19949;-72
2023/08/01 13:43:00;;;;;;;;;;;;;;;;;;5036272;28;19920;-73
2023/08/01 13:45:28;;;;;;;;;;;;;;;;;;5038632;28;22108;-71
2023/08/01 13:47:54;;;;;;;;;;;;;;;;;;5020288;28;20391;-71
2023/08/01 13:50:22;;;;;;;;;;;;;;;;;;5022004;28;20445;-72
2023/08/01 13:52:48;;;;;;;;;;;;;;;;;;5020984;28;20507;-70
2023/08/01 13:55:14;;;;;;;;;;;;;;;;;;5023010;28;20038;-80
2023/08/01 13:57:39;;;;;;;;;;;;;;;;;;5058984;28;20363;-78
2023/08/01 14:00:05;;;;;;;;;;;;;;;;;;5024978;28;20078;-74
2023/08/01 14:02:30;;;;;;;;;;;;;;;;;;5042455;28;19920;-82
2023/08/01 14:04:56;;;;;;;;;;;;;;;;;;5040173;28;19921;-78
2023/08/01 14:07:24;;;;;;;;;;;;;;;;;;5025847;28;20454;-75
2023/08/01 14:09:49;;;;;;;;;;;;;;;;;;5021587;28;19974;-73
2023/08/01 14:12:18;;;;;;;;;;;;;;;;;;5040826;28;19921;-75
2023/08/01 14:14:44;;;;;;;;;;;;;;;;;;5058103;28;20043;-72
2023/08/01 14:17:09;;;;;;;;;;;;;;;;;;5039921;28;19920;-77
2023/08/01 14:19:34;;;;;;;;;;;;;;;;;;5036165;28;19924;-76
2023/08/01 14:22:00;;;;;;;;;;;;;;;;;;5055887;28;19978;-78
2023/08/01 14:24:25;;;;;;;;;;;;;;;;;;5056441;28;19920;-74
2023/08/01 14:26:53;;;;;;;;;;;;;;;;;;5036336;28;19924;-73
2023/08/01 14:29:22;;;;;;;;;;;;;;;;;;5038709;28;20439;-74
2023/08/01 14:31:50;;;;;;;;;;;;;;;;;;5057033;28;19981;-67
2023/08/01 14:34:16;;;;;;;;;;;;;;;;;;5033355;28;19929;-74
2023/08/01 14:36:41;;;;;;;;;;;;;;;;;;5035188;28;20265;-81
2023/08/01 14:39:09;;;;;;;;;;;;;;;;;;5051290;28;19920;-78
2023/08/01 14:41:35;;;;;;;;;;;;;;;;;;5035144;28;20249;-79
2023/08/01 14:44:02;;;;;;;;;;;;;;;;;;5033006;28;20334;-80
2023/08/01 14:46:28;;;;;;;;;;;;;;;;;;5053333;28;19935;-81
2023/08/01 14:48:56;;;;;;;;;;;;;;;;;;5017337;28;20364;-76
2023/08/01 14:51:21;;;;;;;;;;;;;;;;;;5036355;28;20458;-72
2023/08/01 14:53:47;;;;;;;;;;;;;;;;;;5036625;28;19929;-78
2023/08/01 14:56:15;;;;;;;;;;;;;;;;;;5032373;28;20436;-76
2023/08/01 14:58:40;;;;;;;;;;;;;;;;;;5031871;28;19943;-80
2023/08/01 15:01:05;;;;;;;;;;;;;;;;;;5037634;28;19921;-74
2023/08/01 15:03:33;;;;;;;;;;;;;;;;;;5036881;28;19924;-74
2023/08/01 15:05:59;;;;;;;;;;;;;;;;;;5054581;28;20011;-74
2023/08/01 15:08:27;;;;;;;;;;;;;;;;;;5035521;28;19952;-74
2023/08/01 15:10:58;;;;;;;;;;;;;;;;;;5049396;28;20361;-74
2023/08/01 15:13:23;;;;;;;;;;;;;;;;;;5052298;28;19921;-75
2023/08/01 15:15:48;;;;;;;;;;;;;;;;;;5036029;28;19928;-77
2023/08/01 15:18:14;;;;;;;;;;;;;;;;;;5033163;28;20461;-79
2023/08/01 15:20:40;;;;;;;;;;;;;;;;;;5035365;28;19921;-77
2023/08/01 15:23:06;;;;;;;;;;;;;;;;;;5018350;28;19970;-74
2023/08/01 15:25:32;;;;;;;;;;;;;;;;;;5034085;28;19916;-76
2023/08/01 15:27:57;;;;;;;;;;;;;;;;;;5035722;28;20050;-74
2023/08/01 15:30:22;;;;;;;;;;;;;;;;;;5034741;28;20373;-76
2023/08/01 15:32:48;;;;;;;;;;;;;;;;;;5055320;28;19929;-76
2023/08/01 15:35:14;;;;;;;;;;;;;;;;;;5037586;28;20444;-75
2023/08/01 15:37:42;;;;;;;;;;;;;;;;;;5053563;28;19921;-74
2023/08/01 15:40:08;;;;;;;;;;;;;;;;;;5037132;28;19917;-75
2023/08/01 15:42:36;;;;;;;;;;;;;;;;;;5054133;28;19923;-77
2023/08/01 15:45:02;;;;;;;;;;;;;;;;;;5040175;28;19920;-73
2023/08/01 15:47:27;;;;;;;;;;;;;;;;;;5054821;28;20536;-73
2023/08/01 15:49:52;;;;;;;;;;;;;;;;;;5037409;28;19931;-79
2023/08/01 15:52:18;;;;;;;;;;;;;;;;;;5033994;28;19921;-73
2023/08/01 15:54:46;;;;;;;;;;;;;;;;;;5053428;28;20075;-73
2023/08/01 15:57:12;;;;;;;;;;;;;;;;;;5019478;28;20451;-74
2023/08/01 15:59:37;;;;;;;;;;;;;;;;;;5036568;28;20050;-74
2023/08/01 16:02:03;;;;;;;;;;;;;;;;;;5035864;28;20388;-75
2023/08/01 16:04:28;;;;;;;;;;;;;;;;;;5052599;28;20021;-73
2023/08/01 16:06:59;;;;;;;;;;;;;;;;;;5020773;28;20012;-70
2023/08/01 16:09:25;;;;;;;;;;;;;;;;;;5036103;28;19932;-71
2023/08/01 16:11:50;;;;;;;;;;;;;;;;;;5037431;28;20608;-71
2023/08/01 16:14:16;;;;;;;;;;;;;;;;;;5033050;28;20367;-75
2023/08/01 16:16:41;;;;;;;;;;;;;;;;;;5035512;28;19921;-74
2023/08/01 16:19:07;;;;;;;;;;;;;;;;;;5037097;28;19939;-76
2023/08/01 16:21:32;;;;;;;;;;;;;;;;;;5052557;28;19921;-72
2023/08/01 16:24:01;;;;;;;;;;;;;;;;;;5038303;28;19920;-72
2023/08/01 16:26:26;;;;;;;;;;;;;;;;;;5018372;28;19916;-72
2023/08/01 16:28:53;;;;;;;;;;;;;;;;;;5019922;28;20230;-74
2023/08/01 16:31:21;;;;;;;;;;;;;;;;;;5018040;28;20035;-73
2023/08/01 16:33:47;;;;;;;;;;;;;;;;;;5037292;28;19960;-74
2023/08/01 16:36:15;;;;;;;;;;;;;;;;;;5019410;28;19917;-75
2023/08/01 16:38:40;;;;;;;;;;;;;;;;;;5035922;28;19923;-72
2023/08/01 16:41:06;;;;;;;;;;;;;;;;;;5036027;28;19952;-73